Terminal Aerodrome Forecast
Issued by NWS

Home | Current Version | Previous Version | Text Only | Print | Product List | Glossary On
Versions: 1 2 3 4 5 6 7 8 9 10 11 12 13 14 15 16 17 18 19
000
FTAK31 PANC 150539
TAFAAQ
TAF
PAAQ 150539Z 1506/1606 VRB04KT 3SM -SN BR OVC015
      TEMPO 1506/1510 1SM -SN BR VV012
     FM151000 19010KT 5SM -SHSN BR OVC025
     FM151500 VRB04KT P6SM VCSH SCT035 BKN060
     FM151800 04015KT P6SM SCT060
     FM152100 04015G25KT P6SM BKN060
     FM160100 05022G34KT P6SM VCSH BKN060=

USA.gov is the U.S. government's official web portal to all federal, state and local government web resources and services.